sensor_id;sensor_type;location;lat;lon;timestamp;temperature;humidity
21275;DHT22;36472;52.170;20.884;2023-02-15T00:01:54;26.30;38.50
21275;DHT22;36472;52.170;20.884;2023-02-15T00:04:25;26.30;38.50
21275;DHT22;36472;52.170;20.884;2023-02-15T00:07:15;26.30;38.50
21275;DHT22;36472;52.170;20.884;2023-02-15T00:09:45;26.30;38.40
21275;DHT22;36472;52.170;20.884;2023-02-15T00:12:16;26.30;38.40
21275;DHT22;36472;52.170;20.884;2023-02-15T00:14:45;26.30;38.40
21275;DHT22;36472;52.170;20.884;2023-02-15T00:17:14;26.40;38.40
21275;DHT22;36472;52.170;20.884;2023-02-15T00:19:43;26.30;38.30
21275;DHT22;36472;52.170;20.884;2023-02-15T00:22:12;26.40;38.30
21275;DHT22;36472;52.170;20.884;2023-02-15T00:24:41;26.40;38.30
21275;DHT22;36472;52.170;20.884;2023-02-15T00:27:10;26.40;38.30
21275;DHT22;36472;52.170;20.884;2023-02-15T00:29:40;26.40;38.30
21275;DHT22;36472;52.170;20.884;2023-02-15T00:32:10;26.40;38.40
21275;DHT22;36472;52.170;20.884;2023-02-15T00:34:40;26.40;38.30
21275;DHT22;36472;52.170;20.884;2023-02-15T00:37:09;26.40;39.00
21275;DHT22;36472;52.170;20.884;2023-02-15T00:39:38;26.40;38.40
21275;DHT22;36472;52.170;20.884;2023-02-15T00:42:07;26.40;38.40
21275;DHT22;36472;52.170;20.884;2023-02-15T00:44:36;26.40;38.30
21275;DHT22;36472;52.170;20.884;2023-02-15T00:47:06;26.40;38.30
21275;DHT22;36472;52.170;20.884;2023-02-15T00:49:35;26.40;38.40
21275;DHT22;36472;52.170;20.884;2023-02-15T00:52:04;26.30;38.30
21275;DHT22;36472;52.170;20.884;2023-02-15T00:54:33;26.40;38.30
21275;DHT22;36472;52.170;20.884;2023-02-15T00:57:03;26.40;38.30
21275;DHT22;36472;52.170;20.884;2023-02-15T00:59:32;26.40;38.20
21275;DHT22;36472;52.170;20.884;2023-02-15T01:02:01;26.40;38.20
21275;DHT22;36472;52.170;20.884;2023-02-15T01:04:31;26.40;38.20
21275;DHT22;36472;52.170;20.884;2023-02-15T01:07:00;26.40;38.20
21275;DHT22;36472;52.170;20.884;2023-02-15T01:09:32;26.40;38.30
21275;DHT22;36472;52.170;20.884;2023-02-15T01:12:03;26.40;38.30
21275;DHT22;36472;52.170;20.884;2023-02-15T01:14:32;26.40;38.20
21275;DHT22;36472;52.170;20.884;2023-02-15T01:17:01;26.40;38.30
21275;DHT22;36472;52.170;20.884;2023-02-15T01:19:35;26.40;38.20
21275;DHT22;36472;52.170;20.884;2023-02-15T01:22:06;26.40;38.20
21275;DHT22;36472;52.170;20.884;2023-02-15T01:24:35;26.40;38.30
21275;DHT22;36472;52.170;20.884;2023-02-15T01:27:04;26.40;38.20
21275;DHT22;36472;52.170;20.884;2023-02-15T01:29:33;26.40;38.20
21275;DHT22;36472;52.170;20.884;2023-02-15T01:32:03;26.40;38.20
21275;DHT22;36472;52.170;20.884;2023-02-15T01:34:32;26.40;38.20
21275;DHT22;36472;52.170;20.884;2023-02-15T01:37:02;26.40;38.30
21275;DHT22;36472;52.170;20.884;2023-02-15T01:39:31;26.40;38.30
21275;DHT22;36472;52.170;20.884;2023-02-15T01:42:00;26.40;38.30
21275;DHT22;36472;52.170;20.884;2023-02-15T01:44:49;26.40;38.30
21275;DHT22;36472;52.170;20.884;2023-02-15T01:47:23;26.40;38.30
21275;DHT22;36472;52.170;20.884;2023-02-15T01:50:02;26.40;38.30
21275;DHT22;36472;52.170;20.884;2023-02-15T01:52:42;26.40;38.40
21275;DHT22;36472;52.170;20.884;2023-02-15T01:55:18;26.40;38.30
21275;DHT22;36472;52.170;20.884;2023-02-15T01:57:50;26.40;38.30
21275;DHT22;36472;52.170;20.884;2023-02-15T02:00:20;26.40;38.30
21275;DHT22;36472;52.170;20.884;2023-02-15T02:02:53;26.40;38.30
21275;DHT22;36472;52.170;20.884;2023-02-15T02:05:25;26.40;38.30
21275;DHT22;36472;52.170;20.884;2023-02-15T02:07:58;26.40;38.30
21275;DHT22;36472;52.170;20.884;2023-02-15T02:10:31;26.40;38.30
21275;DHT22;36472;52.170;20.884;2023-02-15T02:13:03;26.40;38.30
21275;DHT22;36472;52.170;20.884;2023-02-15T02:15:40;26.40;38.30
21275;DHT22;36472;52.170;20.884;2023-02-15T02:18:29;26.40;38.30
21275;DHT22;36472;52.170;20.884;2023-02-15T02:21:25;26.40;38.40
21275;DHT22;36472;52.170;20.884;2023-02-15T02:24:29;26.40;38.30
21275;DHT22;36472;52.170;20.884;2023-02-15T02:27:23;26.40;38.30
21275;DHT22;36472;52.170;20.884;2023-02-15T02:30:32;26.40;38.30
21275;DHT22;36472;52.170;20.884;2023-02-15T02:33:30;26.40;38.30
21275;DHT22;36472;52.170;20.884;2023-02-15T02:36:22;26.40;38.20
21275;DHT22;36472;52.170;20.884;2023-02-15T02:39:07;26.50;38.30
21275;DHT22;36472;52.170;20.884;2023-02-15T02:41:52;26.40;38.30
21275;DHT22;36472;52.170;20.884;2023-02-15T02:44:34;26.40;38.30
21275;DHT22;36472;52.170;20.884;2023-02-15T02:47:16;26.40;38.30
21275;DHT22;36472;52.170;20.884;2023-02-15T02:49:56;26.40;38.30
21275;DHT22;36472;52.170;20.884;2023-02-15T02:52:39;26.40;38.40
21275;DHT22;36472;52.170;20.884;2023-02-15T02:55:13;26.30;39.20
21275;DHT22;36472;52.170;20.884;2023-02-15T02:57:53;26.30;38.50
21275;DHT22;36472;52.170;20.884;2023-02-15T03:00:25;26.40;38.50
21275;DHT22;36472;52.170;20.884;2023-02-15T03:03:01;26.30;38.40
21275;DHT22;36472;52.170;20.884;2023-02-15T03:05:39;26.40;38.40
21275;DHT22;36472;52.170;20.884;2023-02-15T03:08:14;26.30;38.40
21275;DHT22;36472;52.170;20.884;2023-02-15T03:10:52;26.40;38.40
21275;DHT22;36472;52.170;20.884;2023-02-15T03:13:24;26.30;38.30
21275;DHT22;36472;52.170;20.884;2023-02-15T03:15:55;26.40;38.40
21275;DHT22;36472;52.170;20.884;2023-02-15T03:18:44;26.40;38.40
21275;DHT22;36472;52.170;20.884;2023-02-15T03:21:26;26.40;38.30
21275;DHT22;36472;52.170;20.884;2023-02-15T03:24:04;26.40;38.40
21275;DHT22;36472;52.170;20.884;2023-02-15T03:26:38;26.40;38.40
21275;DHT22;36472;52.170;20.884;2023-02-15T03:29:13;26.40;38.40
21275;DHT22;36472;52.170;20.884;2023-02-15T03:31:48;26.40;38.30
21275;DHT22;36472;52.170;20.884;2023-02-15T03:34:22;26.40;38.40
21275;DHT22;36472;52.170;20.884;2023-02-15T03:36:58;26.40;38.40
21275;DHT22;36472;52.170;20.884;2023-02-15T03:39:38;26.40;38.40
21275;DHT22;36472;52.170;20.884;2023-02-15T03:42:17;26.40;38.40
21275;DHT22;36472;52.170;20.884;2023-02-15T03:44:55;26.40;38.40
21275;DHT22;36472;52.170;20.884;2023-02-15T03:47:31;26.40;38.30
21275;DHT22;36472;52.170;20.884;2023-02-15T03:50:05;26.40;38.30
21275;DHT22;36472;52.170;20.884;2023-02-15T03:53:00;26.40;38.30
21275;DHT22;36472;52.170;20.884;2023-02-15T03:55:33;26.40;38.40
21275;DHT22;36472;52.170;20.884;2023-02-15T03:58:03;26.40;38.30
21275;DHT22;36472;52.170;20.884;2023-02-15T04:00:57;26.40;38.30
21275;DHT22;36472;52.170;20.884;2023-02-15T04:03:49;26.40;38.30
21275;DHT22;36472;52.170;20.884;2023-02-15T04:06:23;26.30;38.20
21275;DHT22;36472;52.170;20.884;2023-02-15T04:08:53;26.30;38.30
21275;DHT22;36472;52.170;20.884;2023-02-15T04:11:39;26.40;38.40
21275;DHT22;36472;52.170;20.884;2023-02-15T04:14:08;26.40;38.20
21275;DHT22;36472;52.170;20.884;2023-02-15T04:16:51;26.40;38.30
21275;DHT22;36472;52.170;20.884;2023-02-15T04:19:20;26.40;38.30
21275;DHT22;36472;52.170;20.884;2023-02-15T04:22:06;26.30;38.10
21275;DHT22;36472;52.170;20.884;2023-02-15T04:24:54;26.30;38.00
21275;DHT22;36472;52.170;20.884;2023-02-15T04:27:38;26.40;38.00
21275;DHT22;36472;52.170;20.884;2023-02-15T04:30:10;26.40;37.90
21275;DHT22;36472;52.170;20.884;2023-02-15T04:32:41;26.30;37.90
21275;DHT22;36472;52.170;20.884;2023-02-15T04:35:10;26.40;38.00
21275;DHT22;36472;52.170;20.884;2023-02-15T04:37:40;26.30;38.10
21275;DHT22;36472;52.170;20.884;2023-02-15T04:40:13;26.30;38.10
21275;DHT22;36472;52.170;20.884;2023-02-15T04:42:47;26.30;38.00
21275;DHT22;36472;52.170;20.884;2023-02-15T04:45:17;26.30;38.00
21275;DHT22;36472;52.170;20.884;2023-02-15T04:47:46;26.30;38.00
21275;DHT22;36472;52.170;20.884;2023-02-15T04:50:15;26.30;38.00
21275;DHT22;36472;52.170;20.884;2023-02-15T04:52:44;26.30;37.90
21275;DHT22;36472;52.170;20.884;2023-02-15T04:55:15;26.30;37.90
21275;DHT22;36472;52.170;20.884;2023-02-15T04:57:44;26.30;37.90
21275;DHT22;36472;52.170;20.884;2023-02-15T05:00:14;26.30;37.90
21275;DHT22;36472;52.170;20.884;2023-02-15T05:02:44;26.30;37.90
21275;DHT22;36472;52.170;20.884;2023-02-15T05:05:13;26.30;37.90
21275;DHT22;36472;52.170;20.884;2023-02-15T05:07:42;26.30;37.90
21275;DHT22;36472;52.170;20.884;2023-02-15T05:10:11;26.30;37.90
21275;DHT22;36472;52.170;20.884;2023-02-15T05:12:42;26.30;38.00
21275;DHT22;36472;52.170;20.884;2023-02-15T05:15:10;26.20;37.90
21275;DHT22;36472;52.170;20.884;2023-02-15T05:17:40;26.20;37.90
21275;DHT22;36472;52.170;20.884;2023-02-15T05:20:09;26.20;37.90
21275;DHT22;36472;52.170;20.884;2023-02-15T05:22:39;26.20;37.90
21275;DHT22;36472;52.170;20.884;2023-02-15T05:25:08;26.20;37.90
21275;DHT22;36472;52.170;20.884;2023-02-15T05:27:56;26.20;37.90
21275;DHT22;36472;52.170;20.884;2023-02-15T05:30:42;26.20;38.00
21275;DHT22;36472;52.170;20.884;2023-02-15T05:33:12;26.20;38.00
21275;DHT22;36472;52.170;20.884;2023-02-15T05:35:41;26.20;38.10
21275;DHT22;36472;52.170;20.884;2023-02-15T05:38:10;26.20;38.10
21275;DHT22;36472;52.170;20.884;2023-02-15T05:40:39;26.20;38.10
21275;DHT22;36472;52.170;20.884;2023-02-15T05:43:09;26.20;38.10
21275;DHT22;36472;52.170;20.884;2023-02-15T05:45:38;26.20;38.10
21275;DHT22;36472;52.170;20.884;2023-02-15T05:48:07;26.20;38.10
21275;DHT22;36472;52.170;20.884;2023-02-15T05:50:36;26.20;38.10
21275;DHT22;36472;52.170;20.884;2023-02-15T05:53:05;26.10;38.00
21275;DHT22;36472;52.170;20.884;2023-02-15T05:55:34;26.20;38.10
21275;DHT22;36472;52.170;20.884;2023-02-15T05:58:05;26.20;38.10
21275;DHT22;36472;52.170;20.884;2023-02-15T06:00:36;26.10;38.00
21275;DHT22;36472;52.170;20.884;2023-02-15T06:03:05;26.10;38.00
21275;DHT22;36472;52.170;20.884;2023-02-15T06:05:34;26.10;38.00
21275;DHT22;36472;52.170;20.884;2023-02-15T06:08:03;26.10;38.10
21275;DHT22;36472;52.170;20.884;2023-02-15T06:10:32;26.10;38.10
21275;DHT22;36472;52.170;20.884;2023-02-15T06:13:01;26.10;38.10
21275;DHT22;36472;52.170;20.884;2023-02-15T06:15:30;26.10;38.10
21275;DHT22;36472;52.170;20.884;2023-02-15T06:18:00;26.00;38.10
21275;DHT22;36472;52.170;20.884;2023-02-15T06:20:29;26.10;38.20
21275;DHT22;36472;52.170;20.884;2023-02-15T06:22:58;26.00;38.20
21275;DHT22;36472;52.170;20.884;2023-02-15T06:25:27;26.00;38.30
21275;DHT22;36472;52.170;20.884;2023-02-15T06:27:56;26.00;38.20
21275;DHT22;36472;52.170;20.884;2023-02-15T06:30:25;26.00;38.20
21275;DHT22;36472;52.170;20.884;2023-02-15T06:32:54;26.00;38.20
21275;DHT22;36472;52.170;20.884;2023-02-15T06:35:24;26.00;38.10
21275;DHT22;36472;52.170;20.884;2023-02-15T06:37:54;26.00;38.10
21275;DHT22;36472;52.170;20.884;2023-02-15T06:40:22;26.00;38.10
21275;DHT22;36472;52.170;20.884;2023-02-15T06:42:52;26.00;38.00
21275;DHT22;36472;52.170;20.884;2023-02-15T06:45:21;26.00;38.20
21275;DHT22;36472;52.170;20.884;2023-02-15T06:47:50;26.00;38.10
21275;DHT22;36472;52.170;20.884;2023-02-15T06:50:19;25.90;38.10
21275;DHT22;36472;52.170;20.884;2023-02-15T06:52:52;25.90;38.30
21275;DHT22;36472;52.170;20.884;2023-02-15T06:55:24;25.80;38.40
21275;DHT22;36472;52.170;20.884;2023-02-15T06:57:53;25.90;38.30
21275;DHT22;36472;52.170;20.884;2023-02-15T07:00:22;25.90;38.40
21275;DHT22;36472;52.170;20.884;2023-02-15T07:02:53;25.90;38.30
21275;DHT22;36472;52.170;20.884;2023-02-15T07:05:25;25.90;39.10
21275;DHT22;36472;52.170;20.884;2023-02-15T07:08:00;25.90;38.50
21275;DHT22;36472;52.170;20.884;2023-02-15T07:10:29;25.90;38.40
21275;DHT22;36472;52.170;20.884;2023-02-15T07:12:58;25.90;38.90
21275;DHT22;36472;52.170;20.884;2023-02-15T07:15:26;25.90;38.30
21275;DHT22;36472;52.170;20.884;2023-02-15T07:17:57;25.90;38.30
21275;DHT22;36472;52.170;20.884;2023-02-15T07:20:26;25.90;38.10
21275;DHT22;36472;52.170;20.884;2023-02-15T07:22:56;25.90;38.20
21275;DHT22;36472;52.170;20.884;2023-02-15T07:25:26;25.90;38.10
21275;DHT22;36472;52.170;20.884;2023-02-15T07:27:56;25.90;38.00
21275;DHT22;36472;52.170;20.884;2023-02-15T07:30:25;25.80;38.00
21275;DHT22;36472;52.170;20.884;2023-02-15T07:32:56;25.80;38.00
21275;DHT22;36472;52.170;20.884;2023-02-15T07:35:46;25.80;38.10
21275;DHT22;36472;52.170;20.884;2023-02-15T07:38:16;25.80;38.10
21275;DHT22;36472;52.170;20.884;2023-02-15T07:40:47;25.80;38.10
21275;DHT22;36472;52.170;20.884;2023-02-15T07:43:16;25.80;38.00
21275;DHT22;36472;52.170;20.884;2023-02-15T07:45:45;25.80;38.00
21275;DHT22;36472;52.170;20.884;2023-02-15T07:48:14;25.80;37.90
21275;DHT22;36472;52.170;20.884;2023-02-15T07:50:43;25.70;37.90
21275;DHT22;36472;52.170;20.884;2023-02-15T07:53:12;25.70;37.80
21275;DHT22;36472;52.170;20.884;2023-02-15T07:55:41;25.70;38.00
21275;DHT22;36472;52.170;20.884;2023-02-15T07:58:12;25.70;37.80
21275;DHT22;36472;52.170;20.884;2023-02-15T08:00:40;25.70;37.90
21275;DHT22;36472;52.170;20.884;2023-02-15T08:03:35;25.70;37.80
21275;DHT22;36472;52.170;20.884;2023-02-15T08:06:04;25.70;37.70
21275;DHT22;36472;52.170;20.884;2023-02-15T08:08:34;25.70;37.80
21275;DHT22;36472;52.170;20.884;2023-02-15T08:11:06;25.70;37.90
21275;DHT22;36472;52.170;20.884;2023-02-15T08:13:57;25.70;37.70
21275;DHT22;36472;52.170;20.884;2023-02-15T08:16:32;25.70;37.90
21275;DHT22;36472;52.170;20.884;2023-02-15T08:19:05;25.70;37.50
21275;DHT22;36472;52.170;20.884;2023-02-15T08:21:37;25.70;37.50
21275;DHT22;36472;52.170;20.884;2023-02-15T08:24:09;25.70;37.60
21275;DHT22;36472;52.170;20.884;2023-02-15T08:26:40;25.70;37.60
21275;DHT22;36472;52.170;20.884;2023-02-15T08:29:10;25.70;37.70
21275;DHT22;36472;52.170;20.884;2023-02-15T08:31:39;25.60;37.70
21275;DHT22;36472;52.170;20.884;2023-02-15T08:34:13;25.60;37.90
21275;DHT22;36472;52.170;20.884;2023-02-15T08:36:43;25.60;38.00
21275;DHT22;36472;52.170;20.884;2023-02-15T08:39:14;25.60;38.00
21275;DHT22;36472;52.170;20.884;2023-02-15T08:41:45;25.60;38.10
21275;DHT22;36472;52.170;20.884;2023-02-15T08:44:16;25.60;38.10
21275;DHT22;36472;52.170;20.884;2023-02-15T08:46:48;25.60;38.20
21275;DHT22;36472;52.170;20.884;2023-02-15T08:49:20;25.60;38.20
21275;DHT22;36472;52.170;20.884;2023-02-15T08:51:50;25.60;38.00
21275;DHT22;36472;52.170;20.884;2023-02-15T08:54:20;25.70;37.80
21275;DHT22;36472;52.170;20.884;2023-02-15T08:56:50;25.70;37.90
21275;DHT22;36472;52.170;20.884;2023-02-15T08:59:20;25.70;38.00
21275;DHT22;36472;52.170;20.884;2023-02-15T09:01:51;25.70;38.60
21275;DHT22;36472;52.170;20.884;2023-02-15T09:04:22;25.70;37.90
21275;DHT22;36472;52.170;20.884;2023-02-15T09:06:51;25.70;38.00
21275;DHT22;36472;52.170;20.884;2023-02-15T09:09:21;25.70;37.90
21275;DHT22;36472;52.170;20.884;2023-02-15T09:11:51;25.70;38.00
21275;DHT22;36472;52.170;20.884;2023-02-15T09:14:26;25.70;38.00
21275;DHT22;36472;52.170;20.884;2023-02-15T09:16:55;25.70;38.00
21275;DHT22;36472;52.170;20.884;2023-02-15T09:19:26;25.70;38.00
21275;DHT22;36472;52.170;20.884;2023-02-15T09:21:55;25.70;38.00
21275;DHT22;36472;52.170;20.884;2023-02-15T09:24:25;25.70;38.00
21275;DHT22;36472;52.170;20.884;2023-02-15T09:26:55;25.70;38.10
21275;DHT22;36472;52.170;20.884;2023-02-15T09:29:23;25.70;38.00
21275;DHT22;36472;52.170;20.884;2023-02-15T09:31:53;25.70;38.20
21275;DHT22;36472;52.170;20.884;2023-02-15T09:34:22;25.60;38.20
21275;DHT22;36472;52.170;20.884;2023-02-15T09:36:53;25.60;38.40
21275;DHT22;36472;52.170;20.884;2023-02-15T09:39:23;25.60;38.60
21275;DHT22;36472;52.170;20.884;2023-02-15T09:42:25;25.60;38.30
21275;DHT22;36472;52.170;20.884;2023-02-15T09:45:20;25.60;38.20
21275;DHT22;36472;52.170;20.884;2023-02-15T09:48:09;25.60;39.10
21275;DHT22;36472;52.170;20.884;2023-02-15T09:51:03;25.60;38.20
21275;DHT22;36472;52.170;20.884;2023-02-15T09:56:52;25.50;38.70
21275;DHT22;36472;52.170;20.884;2023-02-15T09:59:33;25.40;38.40
21275;DHT22;36472;52.170;20.884;2023-02-15T10:02:20;25.40;38.10
21275;DHT22;36472;52.170;20.884;2023-02-15T10:05:08;25.30;38.00
21275;DHT22;36472;52.170;20.884;2023-02-15T10:08:01;25.30;38.00
21275;DHT22;36472;52.170;20.884;2023-02-15T10:10:59;25.30;38.30
21275;DHT22;36472;52.170;20.884;2023-02-15T10:13:58;25.40;38.40
21275;DHT22;36472;52.170;20.884;2023-02-15T10:16:46;25.40;38.00
21275;DHT22;36472;52.170;20.884;2023-02-15T10:19:35;25.50;37.90
21275;DHT22;36472;52.170;20.884;2023-02-15T10:22:21;25.50;37.90
21275;DHT22;36472;52.170;20.884;2023-02-15T10:25:12;25.50;37.80
21275;DHT22;36472;52.170;20.884;2023-02-15T10:27:50;25.50;37.90
21275;DHT22;36472;52.170;20.884;2023-02-15T10:30:26;25.50;37.90
21275;DHT22;36472;52.170;20.884;2023-02-15T10:33:03;25.40;38.00
21275;DHT22;36472;52.170;20.884;2023-02-15T10:35:43;25.40;38.30
21275;DHT22;36472;52.170;20.884;2023-02-15T10:38:25;25.50;38.40
21275;DHT22;36472;52.170;20.884;2023-02-15T10:41:14;25.50;38.10
21275;DHT22;36472;52.170;20.884;2023-02-15T10:44:10;25.40;38.20
21275;DHT22;36472;52.170;20.884;2023-02-15T10:47:00;25.50;38.30
21275;DHT22;36472;52.170;20.884;2023-02-15T10:52:55;25.50;38.10
21275;DHT22;36472;52.170;20.884;2023-02-15T10:55:47;25.40;38.40
21275;DHT22;36472;52.170;20.884;2023-02-15T10:58:31;25.40;38.30
21275;DHT22;36472;52.170;20.884;2023-02-15T11:01:20;25.40;38.40
21275;DHT22;36472;52.170;20.884;2023-02-15T11:04:18;25.40;38.40
21275;DHT22;36472;52.170;20.884;2023-02-15T11:07:12;25.50;38.70
21275;DHT22;36472;52.170;20.884;2023-02-15T11:09:49;25.50;38.60
21275;DHT22;36472;52.170;20.884;2023-02-15T11:12:25;25.50;38.40
21275;DHT22;36472;52.170;20.884;2023-02-15T11:15:00;25.60;38.40
21275;DHT22;36472;52.170;20.884;2023-02-15T11:17:38;25.60;38.50
21275;DHT22;36472;52.170;20.884;2023-02-15T11:20:18;25.50;38.30
21275;DHT22;36472;52.170;20.884;2023-02-15T11:22:53;25.10;38.80
21275;DHT22;36472;52.170;20.884;2023-02-15T11:25:27;25.10;38.90
21275;DHT22;36472;52.170;20.884;2023-02-15T11:27:58;25.20;39.00
21275;DHT22;36472;52.170;20.884;2023-02-15T11:30:40;25.30;39.30
21275;DHT22;36472;52.170;20.884;2023-02-15T11:33:18;25.40;39.30
21275;DHT22;36472;52.170;20.884;2023-02-15T11:35:55;25.50;39.10
21275;DHT22;36472;52.170;20.884;2023-02-15T11:38:32;25.60;39.10
21275;DHT22;36472;52.170;20.884;2023-02-15T11:41:04;25.60;38.80
21275;DHT22;36472;52.170;20.884;2023-02-15T11:43:41;25.70;38.80
21275;DHT22;36472;52.170;20.884;2023-02-15T11:46:15;25.80;38.70
21275;DHT22;36472;52.170;20.884;2023-02-15T11:48:48;25.80;38.70
21275;DHT22;36472;52.170;20.884;2023-02-15T11:51:19;25.90;38.40
21275;DHT22;36472;52.170;20.884;2023-02-15T11:53:51;25.80;38.50
21275;DHT22;36472;52.170;20.884;2023-02-15T11:56:23;25.80;38.50
21275;DHT22;36472;52.170;20.884;2023-02-15T11:58:56;25.80;38.60
21275;DHT22;36472;52.170;20.884;2023-02-15T12:01:32;25.80;38.60
21275;DHT22;36472;52.170;20.884;2023-02-15T12:04:10;25.80;38.80
21275;DHT22;36472;52.170;20.884;2023-02-15T12:06:49;25.80;38.60
21275;DHT22;36472;52.170;20.884;2023-02-15T12:09:33;25.80;38.40
21275;DHT22;36472;52.170;20.884;2023-02-15T12:12:22;25.80;38.50
21275;DHT22;36472;52.170;20.884;2023-02-15T12:14:54;25.80;38.60
21275;DHT22;36472;52.170;20.884;2023-02-15T12:17:26;25.70;38.60
21275;DHT22;36472;52.170;20.884;2023-02-15T12:20:00;25.70;38.70
21275;DHT22;36472;52.170;20.884;2023-02-15T12:22:33;25.70;38.80
21275;DHT22;36472;52.170;20.884;2023-02-15T12:25:21;25.60;38.70
21275;DHT22;36472;52.170;20.884;2023-02-15T12:27:52;25.30;38.80
21275;DHT22;36472;52.170;20.884;2023-02-15T12:30:27;25.50;39.30
21275;DHT22;36472;52.170;20.884;2023-02-15T12:33:14;25.50;39.20
21275;DHT22;36472;52.170;20.884;2023-02-15T12:35:47;25.60;39.00
21275;DHT22;36472;52.170;20.884;2023-02-15T12:38:24;25.70;38.70
21275;DHT22;36472;52.170;20.884;2023-02-15T12:41:00;25.80;38.70
21275;DHT22;36472;52.170;20.884;2023-02-15T12:43:33;25.90;38.60
21275;DHT22;36472;52.170;20.884;2023-02-15T12:46:19;25.90;38.90
21275;DHT22;36472;52.170;20.884;2023-02-15T12:49:05;26.00;38.30
21275;DHT22;36472;52.170;20.884;2023-02-15T12:51:45;26.00;38.30
21275;DHT22;36472;52.170;20.884;2023-02-15T12:54:29;25.90;38.30
21275;DHT22;36472;52.170;20.884;2023-02-15T12:57:19;26.00;38.50
21275;DHT22;36472;52.170;20.884;2023-02-15T12:59:53;25.90;38.30
21275;DHT22;36472;52.170;20.884;2023-02-15T13:02:27;25.70;38.40
21275;DHT22;36472;52.170;20.884;2023-02-15T13:05:10;25.80;38.60
21275;DHT22;36472;52.170;20.884;2023-02-15T13:07:50;25.80;38.60
21275;DHT22;36472;52.170;20.884;2023-02-15T13:10:24;25.70;38.50
21275;DHT22;36472;52.170;20.884;2023-02-15T13:12:57;25.70;38.70
21275;DHT22;36472;52.170;20.884;2023-02-15T13:15:30;25.70;38.60
21275;DHT22;36472;52.170;20.884;2023-02-15T13:18:05;25.60;38.70
21275;DHT22;36472;52.170;20.884;2023-02-15T13:20:43;25.60;38.70
21275;DHT22;36472;52.170;20.884;2023-02-15T13:23:23;25.60;38.70
21275;DHT22;36472;52.170;20.884;2023-02-15T13:26:03;25.60;38.80
21275;DHT22;36472;52.170;20.884;2023-02-15T13:28:38;25.50;38.80
21275;DHT22;36472;52.170;20.884;2023-02-15T13:31:13;25.40;38.80
21275;DHT22;36472;52.170;20.884;2023-02-15T13:33:46;25.50;39.00
21275;DHT22;36472;52.170;20.884;2023-02-15T13:36:23;25.50;38.90
21275;DHT22;36472;52.170;20.884;2023-02-15T13:39:13;25.60;38.90
21275;DHT22;36472;52.170;20.884;2023-02-15T13:41:55;25.60;38.80
21275;DHT22;36472;52.170;20.884;2023-02-15T13:44:59;25.70;38.80
21275;DHT22;36472;52.170;20.884;2023-02-15T13:47:43;25.70;38.50
21275;DHT22;36472;52.170;20.884;2023-02-15T13:50:52;25.80;38.60
21275;DHT22;36472;52.170;20.884;2023-02-15T13:53:53;25.70;38.20
21275;DHT22;36472;52.170;20.884;2023-02-15T13:56:51;25.70;38.50
21275;DHT22;36472;52.170;20.884;2023-02-15T13:59:43;25.70;38.40
21275;DHT22;36472;52.170;20.884;2023-02-15T14:02:38;25.60;38.40
21275;DHT22;36472;52.170;20.884;2023-02-15T14:05:39;25.60;38.50
21275;DHT22;36472;52.170;20.884;2023-02-15T14:08:21;25.40;38.60
21275;DHT22;36472;52.170;20.884;2023-02-15T14:11:10;25.40;38.80
21275;DHT22;36472;52.170;20.884;2023-02-15T14:14:11;25.20;38.80
21275;DHT22;36472;52.170;20.884;2023-02-15T14:17:01;25.30;38.90
21275;DHT22;36472;52.170;20.884;2023-02-15T14:19:44;25.30;38.80
21275;DHT22;36472;52.170;20.884;2023-02-15T14:22:22;25.30;39.00
21275;DHT22;36472;52.170;20.884;2023-02-15T14:25:12;25.20;38.80
21275;DHT22;36472;52.170;20.884;2023-02-15T14:27:54;25.30;38.70
21275;DHT22;36472;52.170;20.884;2023-02-15T14:30:31;25.40;38.90
21275;DHT22;36472;52.170;20.884;2023-02-15T14:33:06;25.40;38.80
21275;DHT22;36472;52.170;20.884;2023-02-15T14:35:37;25.50;38.80
21275;DHT22;36472;52.170;20.884;2023-02-15T14:38:15;25.60;38.70
21275;DHT22;36472;52.170;20.884;2023-02-15T14:41:09;25.50;38.60
21275;DHT22;36472;52.170;20.884;2023-02-15T14:43:48;25.50;38.50
21275;DHT22;36472;52.170;20.884;2023-02-15T14:46:31;25.50;38.60
21275;DHT22;36472;52.170;20.884;2023-02-15T14:49:09;25.20;38.80
21275;DHT22;36472;52.170;20.884;2023-02-15T14:52:03;25.30;38.90
21275;DHT22;36472;52.170;20.884;2023-02-15T14:54:55;25.40;38.80
21275;DHT22;36472;52.170;20.884;2023-02-15T14:57:33;25.40;38.80
21275;DHT22;36472;52.170;20.884;2023-02-15T15:03:20;25.50;38.60
21275;DHT22;36472;52.170;20.884;2023-02-15T15:06:02;25.60;38.50
21275;DHT22;36472;52.170;20.884;2023-02-15T15:08:37;25.60;38.50
21275;DHT22;36472;52.170;20.884;2023-02-15T15:11:37;25.50;38.20
21275;DHT22;36472;52.170;20.884;2023-02-15T15:14:38;25.40;38.10
21275;DHT22;36472;52.170;20.884;2023-02-15T15:17:41;25.40;38.00
21275;DHT22;36472;52.170;20.884;2023-02-15T15:20:48;25.30;38.00
21275;DHT22;36472;52.170;20.884;2023-02-15T15:23:45;25.30;38.50
21275;DHT22;36472;52.170;20.884;2023-02-15T15:26:28;25.30;38.30
21275;DHT22;36472;52.170;20.884;2023-02-15T15:29:01;25.30;38.30
21275;DHT22;36472;52.170;20.884;2023-02-15T15:31:47;25.40;38.20
21275;DHT22;36472;52.170;20.884;2023-02-15T15:38:12;25.40;37.90
21275;DHT22;36472;52.170;20.884;2023-02-15T15:41:17;25.10;38.30
21275;DHT22;36472;52.170;20.884;2023-02-15T15:44:04;25.20;38.50
21275;DHT22;36472;52.170;20.884;2023-02-15T15:47:12;25.20;38.50
21275;DHT22;36472;52.170;20.884;2023-02-15T15:49:59;25.10;38.30
21275;DHT22;36472;52.170;20.884;2023-02-15T15:52:28;25.20;38.40
21275;DHT22;36472;52.170;20.884;2023-02-15T15:55:14;25.20;38.30
21275;DHT22;36472;52.170;20.884;2023-02-15T15:57:48;25.00;38.40
21275;DHT22;36472;52.170;20.884;2023-02-15T16:00:33;25.00;38.60
21275;DHT22;36472;52.170;20.884;2023-02-15T16:03:05;25.10;38.50
21275;DHT22;36472;52.170;20.884;2023-02-15T16:05:36;25.10;38.50
21275;DHT22;36472;52.170;20.884;2023-02-15T16:08:06;25.20;39.20
21275;DHT22;36472;52.170;20.884;2023-02-15T16:10:37;25.20;38.40
21275;DHT22;36472;52.170;20.884;2023-02-15T16:13:06;25.20;38.40
21275;DHT22;36472;52.170;20.884;2023-02-15T16:15:43;25.20;38.40
21275;DHT22;36472;52.170;20.884;2023-02-15T16:18:17;25.30;38.40
21275;DHT22;36472;52.170;20.884;2023-02-15T16:20:53;25.30;38.30
21275;DHT22;36472;52.170;20.884;2023-02-15T16:26:57;25.40;38.00
21275;DHT22;36472;52.170;20.884;2023-02-15T16:29:38;25.40;37.80
21275;DHT22;36472;52.170;20.884;2023-02-15T16:32:17;25.50;38.00